Time;durP1;ratioP1;P1;durP2;ratioP2;P2;SDS_P1;SDS_P2;PMS_P1;PMS_P2;Temp;Humidity;BMP_temperature;BMP_pressure;BME280_temperature;BME280_humidity;BME280_pressure;Samples;Min_cycle;Max_cycle;Signal;HPM_P1;HPM_P2
2024/01/31 00:02:14;;;;;;;6.95;2.30;;;5.80;99.90;;;;;;4968150;28;20035;-85
2024/01/31 00:04:40;;;;;;;3.35;1.80;;;5.90;99.90;;;;;;4951961;28;20044;-88
2024/01/31 00:07:06;;;;;;;8.63;2.28;;;5.90;99.90;;;;;;4935636;28;20054;-90
2024/01/31 00:09:33;;;;;;;6.97;2.50;;;5.90;99.90;;;;;;4970262;28;20031;-89
2024/01/31 00:11:59;;;;;;;5.88;2.40;;;5.90;99.90;;;;;;4969917;28;20055;-89
2024/01/31 00:14:26;;;;;;;4.28;1.65;;;6.00;99.90;;;;;;4950787;28;20039;-86
2024/01/31 00:16:52;;;;;;;8.43;2.72;;;6.00;99.90;;;;;;4936765;28;20042;-89
2024/01/31 00:19:18;;;;;;;9.73;3.75;;;6.10;99.90;;;;;;4951929;28;20395;-87
2024/01/31 00:21:45;;;;;;;8.90;3.33;;;6.00;99.90;;;;;;4951924;28;20054;-89
2024/01/31 00:24:11;;;;;;;6.85;2.47;;;6.10;99.90;;;;;;4934962;28;20032;-92
2024/01/31 00:26:37;;;;;;;8.50;2.17;;;6.00;99.90;;;;;;4950134;28;20140;-88
2024/01/31 00:29:04;;;;;;;7.03;2.42;;;6.10;99.90;;;;;;4949324;28;20035;-90
2024/01/31 00:31:30;;;;;;;9.07;2.58;;;6.10;99.90;;;;;;4964658;28;20039;-88
2024/01/31 00:33:56;;;;;;;6.63;2.17;;;6.10;99.90;;;;;;4949629;28;20043;-91
2024/01/31 00:36:23;;;;;;;7.25;2.17;;;6.10;99.90;;;;;;4946257;28;20039;-87
2024/01/31 00:38:49;;;;;;;7.82;1.73;;;6.10;99.90;;;;;;4980964;28;20043;-83
2024/01/31 00:41:16;;;;;;;5.95;2.03;;;6.10;99.90;;;;;;4949686;28;20483;-83
2024/01/31 00:43:42;;;;;;;6.30;1.98;;;6.10;99.90;;;;;;4964041;28;20046;-88
2024/01/31 00:46:08;;;;;;;4.90;2.40;;;6.10;99.90;;;;;;4931581;28;20039;-90
2024/01/31 00:48:35;;;;;;;8.30;2.30;;;6.10;99.90;;;;;;4966133;28;20047;-86
2024/01/31 00:51:01;;;;;;;5.95;1.60;;;6.10;99.90;;;;;;4966830;28;20226;-83
2024/01/31 00:53:28;;;;;;;9.80;2.75;;;6.10;99.90;;;;;;4965279;28;20039;-90
2024/01/31 00:55:54;;;;;;;9.43;2.80;;;6.10;99.90;;;;;;4932996;28;20050;-90
2024/01/31 00:58:20;;;;;;;7.22;2.45;;;6.10;99.90;;;;;;4946611;28;20047;-86
2024/01/31 01:00:47;;;;;;;6.43;2.35;;;6.10;99.90;;;;;;4965356;28;20042;-85
2024/01/31 01:03:13;;;;;;;6.30;1.73;;;6.10;99.90;;;;;;4965346;28;20040;-90
2024/01/31 01:05:39;;;;;;;6.90;2.58;;;6.10;99.90;;;;;;4933001;28;20034;-82
2024/01/31 01:08:06;;;;;;;9.63;2.30;;;6.10;99.90;;;;;;4949112;28;20043;-87
2024/01/31 01:10:32;;;;;;;5.07;1.42;;;6.10;99.90;;;;;;4968977;28;20035;-88
2024/01/31 01:12:59;;;;;;;4.90;1.15;;;6.10;99.90;;;;;;4936427;28;20031;-89
2024/01/31 01:15:25;;;;;;;3.03;1.30;;;6.10;99.90;;;;;;4935399;28;20035;-90
2024/01/31 01:17:51;;;;;;;5.38;1.55;;;6.20;99.90;;;;;;4936449;28;20050;-88
2024/01/31 01:20:18;;;;;;;5.68;1.65;;;6.20;99.90;;;;;;4984626;28;20043;-88
2024/01/31 01:22:45;;;;;;;4.30;1.13;;;6.20;99.90;;;;;;4950117;28;20046;-89
2024/01/31 01:25:11;;;;;;;5.65;1.20;;;6.20;99.90;;;;;;4966521;28;20035;-86
2024/01/31 01:27:38;;;;;;;4.40;1.13;;;6.10;99.90;;;;;;4966676;28;20058;-85
2024/01/31 01:30:05;;;;;;;6.38;1.35;;;6.10;99.90;;;;;;4936843;28;20039;-84
2024/01/31 01:32:32;;;;;;;3.58;1.13;;;6.10;99.90;;;;;;4966942;28;20046;-85
2024/01/31 01:34:58;;;;;;;5.07;1.38;;;6.10;99.90;;;;;;4934698;28;20088;-89
2024/01/31 01:37:24;;;;;;;3.78;1.50;;;6.10;99.90;;;;;;4964687;28;20039;-87
2024/01/31 01:39:51;;;;;;;6.55;1.40;;;6.10;99.90;;;;;;4953114;28;20047;-85
2024/01/31 01:42:17;;;;;;;4.22;1.63;;;6.10;99.90;;;;;;4967073;28;20058;-84
2024/01/31 01:44:47;;;;;;;3.42;1.33;;;6.10;99.90;;;;;;4935485;28;20043;-87
2024/01/31 01:47:15;;;;;;;2.85;0.80;;;6.10;99.90;;;;;;4951911;28;20047;-88
2024/01/31 01:49:41;;;;;;;3.05;0.90;;;6.10;99.90;;;;;;4968563;28;20280;-87
2024/01/31 01:52:09;;;;;;;4.55;0.90;;;6.10;99.90;;;;;;4950285;28;20039;-83
2024/01/31 01:54:37;;;;;;;5.13;0.80;;;6.10;99.90;;;;;;4967450;28;20057;-87
2024/01/31 01:57:05;;;;;;;1.88;0.80;;;6.20;99.90;;;;;;4950638;28;20043;-86
2024/01/31 01:59:33;;;;;;;2.47;0.90;;;6.20;99.90;;;;;;4950824;28;20050;-87
2024/01/31 02:02:01;;;;;;;4.18;1.00;;;6.10;99.90;;;;;;4948440;28;20236;-86
2024/01/31 02:04:29;;;;;;;2.63;0.80;;;6.10;99.90;;;;;;4949802;28;20031;-88
2024/01/31 02:06:56;;;;;;;2.17;0.80;;;6.20;99.90;;;;;;4965910;28;21584;-83
2024/01/31 02:09:23;;;;;;;6.82;1.42;;;6.10;99.90;;;;;;4955746;28;20035;-89
2024/01/31 02:11:49;;;;;;;2.40;1.20;;;6.20;99.90;;;;;;4953788;28;20372;-82
2024/01/31 02:14:16;;;;;;;4.53;1.85;;;6.10;99.90;;;;;;4941525;28;20042;-79
2024/01/31 02:16:45;;;;;;;4.80;1.38;;;6.20;99.90;;;;;;4940801;28;20039;-89
2024/01/31 02:19:12;;;;;;;4.28;1.00;;;6.20;99.90;;;;;;4952277;28;20388;-87
2024/01/31 02:21:43;;;;;;;3.47;0.90;;;6.10;99.90;;;;;;4968956;28;20047;-88
2024/01/31 02:24:11;;;;;;;3.15;1.30;;;6.10;99.90;;;;;;4968559;28;20503;-84
2024/01/31 02:26:37;;;;;;;3.40;0.80;;;6.10;99.90;;;;;;4951509;28;20046;-90
2024/01/31 02:29:04;;;;;;;4.68;0.70;;;6.10;99.90;;;;;;4965616;28;20039;-87
2024/01/31 02:31:30;;;;;;;4.40;1.20;;;6.10;99.90;;;;;;4949133;28;20034;-89
2024/01/31 02:33:56;;;;;;;3.65;1.00;;;6.10;99.90;;;;;;4953072;28;20688;-82
2024/01/31 02:36:23;;;;;;;5.10;1.10;;;6.10;99.90;;;;;;4937785;28;20668;-82
2024/01/31 02:38:49;;;;;;;4.68;1.23;;;6.10;99.90;;;;;;4965596;28;20035;-89
2024/01/31 02:41:15;;;;;;;3.40;1.02;;;6.10;99.90;;;;;;4963376;28;20039;-86
2024/01/31 02:43:42;;;;;;;3.08;0.98;;;6.10;99.90;;;;;;4963768;28;20042;-87
2024/01/31 02:46:08;;;;;;;3.05;0.90;;;6.10;99.90;;;;;;4949613;28;20039;-81
2024/01/31 02:48:34;;;;;;;5.00;1.50;;;6.10;99.90;;;;;;4952274;28;20136;-89
2024/01/31 02:51:01;;;;;;;3.40;1.35;;;6.10;99.90;;;;;;4937378;28;20528;-84
2024/01/31 02:53:27;;;;;;;3.10;1.13;;;6.10;99.90;;;;;;4939292;28;20039;-88
2024/01/31 02:55:53;;;;;;;4.88;0.90;;;6.10;99.90;;;;;;4937695;28;20046;-87
2024/01/31 02:58:19;;;;;;;4.45;1.10;;;6.00;99.90;;;;;;4969902;28;20043;-85
2024/01/31 03:00:46;;;;;;;5.72;1.25;;;6.10;99.90;;;;;;4971349;28;20046;-83
2024/01/31 03:03:12;;;;;;;2.85;0.73;;;6.00;99.90;;;;;;4971374;28;20042;-88
2024/01/31 03:05:38;;;;;;;2.03;1.00;;;6.00;99.90;;;;;;4936632;28;20619;-85
2024/01/31 03:08:05;;;;;;;3.25;1.33;;;6.00;99.90;;;;;;4968767;28;20046;-87
2024/01/31 03:10:32;;;;;;;2.80;0.98;;;6.00;99.90;;;;;;4939385;28;20419;-85
2024/01/31 03:12:58;;;;;;;2.58;1.13;;;6.00;99.90;;;;;;4967102;28;20031;-83
2024/01/31 03:15:25;;;;;;;4.13;0.80;;;6.00;99.90;;;;;;4954330;28;20039;-88
2024/01/31 03:17:51;;;;;;;4.30;1.10;;;6.00;99.90;;;;;;4984373;28;20042;-89
2024/01/31 03:20:18;;;;;;;3.00;0.70;;;6.00;99.90;;;;;;4967727;28;20031;-84
2024/01/31 03:22:44;;;;;;;4.05;1.10;;;6.00;99.90;;;;;;4937750;28;20035;-88
2024/01/31 03:25:11;;;;;;;2.72;1.05;;;6.00;99.90;;;;;;4953052;28;20045;-87
2024/01/31 03:27:37;;;;;;;2.90;0.80;;;6.00;99.90;;;;;;4968770;28;20062;-85
2024/01/31 03:30:04;;;;;;;3.22;0.70;;;6.00;99.90;;;;;;4922213;29;20043;-88
2024/01/31 03:32:32;;;;;;;5.15;1.50;;;6.00;99.90;;;;;;4967371;28;20039;-87
2024/01/31 03:34:59;;;;;;;3.72;1.30;;;6.00;99.90;;;;;;4965910;28;20042;-87
2024/01/31 03:37:26;;;;;;;3.38;0.88;;;6.00;99.90;;;;;;4966971;28;20939;-87
2024/01/31 03:39:52;;;;;;;3.47;0.90;;;6.00;99.90;;;;;;4933910;28;20038;-88
2024/01/31 03:42:18;;;;;;;5.70;1.00;;;6.00;99.90;;;;;;4965996;28;20024;-88
2024/01/31 03:44:45;;;;;;;1.55;0.73;;;6.00;99.90;;;;;;4938792;28;20042;-88
2024/01/31 03:47:11;;;;;;;1.85;1.10;;;6.00;99.90;;;;;;4936740;28;20051;-89
2024/01/31 03:49:37;;;;;;;2.20;0.70;;;6.00;99.90;;;;;;4951600;28;20876;-86
2024/01/31 03:52:04;;;;;;;2.05;0.75;;;6.00;99.90;;;;;;4950580;28;20043;-89
2024/01/31 03:54:30;;;;;;;2.45;0.70;;;6.00;99.90;;;;;;4950876;28;20046;-85
2024/01/31 03:56:57;;;;;;;3.28;0.98;;;6.00;99.90;;;;;;4937314;28;20066;-86
2024/01/31 03:59:23;;;;;;;2.97;0.95;;;6.00;99.90;;;;;;4975951;28;20364;-80
2024/01/31 04:01:50;;;;;;;2.05;0.73;;;6.00;99.90;;;;;;4944913;28;20707;-90
2024/01/31 04:04:16;;;;;;;4.97;0.75;;;6.00;99.90;;;;;;4971280;28;20039;-90
2024/01/31 04:06:45;;;;;;;5.53;0.82;;;6.00;99.90;;;;;;4949224;28;20132;-86
2024/01/31 04:09:11;;;;;;;4.35;1.20;;;6.00;99.90;;;;;;4968596;28;20035;-89
2024/01/31 04:11:38;;;;;;;3.85;1.02;;;6.00;99.90;;;;;;4955019;28;20039;-83
2024/01/31 04:14:04;;;;;;;3.80;1.05;;;6.00;99.90;;;;;;4954224;28;20039;-92
2024/01/31 04:16:30;;;;;;;2.35;0.98;;;6.00;99.90;;;;;;4971076;28;20050;-83
2024/01/31 04:18:57;;;;;;;5.43;1.27;;;6.00;99.90;;;;;;4970569;28;20042;-88
2024/01/31 04:21:24;;;;;;;2.50;0.88;;;6.00;99.90;;;;;;4960003;28;20046;-84
2024/01/31 04:23:51;;;;;;;3.75;1.23;;;6.00;99.90;;;;;;4954153;28;20050;-85
2024/01/31 04:26:17;;;;;;;2.72;1.20;;;6.00;99.90;;;;;;4936924;28;20031;-88
2024/01/31 04:28:44;;;;;;;4.80;1.42;;;6.00;99.90;;;;;;4936433;28;20127;-85
2024/01/31 04:31:17;;;;;;;2.42;1.42;;;6.00;99.90;;;;;;4982993;28;20039;-85
2024/01/31 04:33:44;;;;;;;2.83;0.98;;;6.00;99.90;;;;;;4953139;28;20396;-88
2024/01/31 04:36:10;;;;;;;2.30;1.20;;;6.00;99.90;;;;;;4968196;28;20070;-87
2024/01/31 04:38:37;;;;;;;3.65;1.45;;;6.00;99.90;;;;;;4952363;28;20043;-85
2024/01/31 04:41:03;;;;;;;3.28;1.13;;;6.00;99.90;;;;;;4953927;28;20054;-82
2024/01/31 04:43:29;;;;;;;3.67;1.33;;;6.00;99.90;;;;;;4951317;28;20141;-81
2024/01/31 04:45:56;;;;;;;3.40;0.98;;;6.00;99.90;;;;;;4920507;29;20035;-83
2024/01/31 04:48:22;;;;;;;2.42;1.60;;;6.00;99.90;;;;;;4937727;28;20055;-84
2024/01/31 04:50:50;;;;;;;4.53;1.15;;;6.00;99.90;;;;;;4967575;28;20427;-88
2024/01/31 04:53:16;;;;;;;1.77;1.00;;;6.00;99.90;;;;;;4940331;28;20475;-87
2024/01/31 04:55:44;;;;;;;3.72;1.25;;;6.00;99.90;;;;;;4934376;28;20039;-83
2024/01/31 04:58:12;;;;;;;4.60;1.42;;;6.00;99.90;;;;;;4966139;28;20119;-82
2024/01/31 05:00:38;;;;;;;7.03;1.90;;;6.00;99.90;;;;;;4967054;28;20469;-88
2024/01/31 05:03:05;;;;;;;5.78;1.65;;;6.00;99.90;;;;;;4933418;28;20566;-86
2024/01/31 05:05:31;;;;;;;3.60;0.88;;;6.00;99.90;;;;;;4982994;28;20039;-88
2024/01/31 05:07:58;;;;;;;2.22;1.08;;;6.00;99.90;;;;;;4936827;28;20047;-87
2024/01/31 05:10:24;;;;;;;6.03;1.58;;;6.00;99.90;;;;;;4949867;28;20035;-83
2024/01/31 05:12:50;;;;;;;4.00;1.05;;;6.00;99.90;;;;;;4949980;28;20043;-86
2024/01/31 05:15:17;;;;;;;5.40;1.40;;;6.00;99.90;;;;;;4937409;28;21182;-86
2024/01/31 05:17:43;;;;;;;4.50;1.02;;;6.00;99.90;;;;;;4948711;28;20054;-88
2024/01/31 05:20:09;;;;;;;2.88;1.13;;;6.00;99.90;;;;;;4949915;28;20479;-85
2024/01/31 05:22:36;;;;;;;2.22;1.10;;;6.00;99.90;;;;;;4953219;28;20039;-87
2024/01/31 05:25:02;;;;;;;4.03;0.90;;;6.00;99.90;;;;;;4967277;28;20046;-89
2024/01/31 05:27:28;;;;;;;4.03;1.45;;;6.00;99.90;;;;;;4936680;28;20136;-86
2024/01/31 05:29:55;;;;;;;3.65;0.88;;;6.00;99.90;;;;;;4966925;28;20058;-89
2024/01/31 05:32:21;;;;;;;2.97;0.90;;;6.00;99.90;;;;;;4968886;28;20502;-88
2024/01/31 05:34:48;;;;;;;4.00;0.80;;;6.00;99.90;;;;;;4937550;28;20035;-87
2024/01/31 05:37:14;;;;;;;3.13;1.17;;;6.00;99.90;;;;;;4954851;28;20051;-82
2024/01/31 05:39:41;;;;;;;5.65;1.23;;;6.00;99.90;;;;;;4970573;28;20284;-89
2024/01/31 05:42:07;;;;;;;3.75;1.50;;;6.00;99.90;;;;;;4939323;28;20043;-89
2024/01/31 05:44:33;;;;;;;4.05;1.17;;;6.00;99.90;;;;;;4951003;28;20038;-87
2024/01/31 05:47:00;;;;;;;6.25;1.42;;;6.00;99.90;;;;;;4967835;28;20100;-87
2024/01/31 05:49:26;;;;;;;3.10;1.10;;;6.00;99.90;;;;;;4948938;28;20043;-88
2024/01/31 05:51:53;;;;;;;2.83;0.80;;;6.00;99.90;;;;;;4949141;28;20040;-86
2024/01/31 05:54:19;;;;;;;2.45;0.90;;;6.00;99.90;;;;;;4920969;28;20035;-84
2024/01/31 05:56:46;;;;;;;2.05;0.80;;;6.00;99.90;;;;;;4965273;28;20049;-83
2024/01/31 05:59:12;;;;;;;2.67;0.70;;;6.00;99.90;;;;;;4950688;28;20039;-89
2024/01/31 06:01:38;;;;;;;3.35;0.98;;;6.00;99.90;;;;;;4965344;28;20896;-87
2024/01/31 06:04:06;;;;;;;7.88;2.03;;;6.00;99.90;;;;;;4951359;28;20043;-81
2024/01/31 06:06:32;;;;;;;2.85;1.10;;;6.00;99.90;;;;;;4965468;28;20514;-87
2024/01/31 06:08:59;;;;;;;2.88;1.17;;;6.00;99.90;;;;;;4961299;28;20454;-88
2024/01/31 06:11:25;;;;;;;2.13;1.17;;;6.00;99.90;;;;;;4957998;28;20050;-88
2024/01/31 06:13:51;;;;;;;2.97;0.80;;;6.00;99.90;;;;;;4952912;28;20043;-90
2024/01/31 06:16:17;;;;;;;2.58;1.00;;;6.00;99.90;;;;;;4968588;28;20042;-86
2024/01/31 06:18:44;;;;;;;3.97;1.20;;;6.00;99.90;;;;;;4951043;28;20047;-85
2024/01/31 06:21:10;;;;;;;3.10;1.00;;;6.00;99.90;;;;;;4983205;28;20437;-86
2024/01/31 06:23:37;;;;;;;4.20;1.50;;;6.00;99.90;;;;;;4934369;28;20031;-87
2024/01/31 06:26:03;;;;;;;4.53;1.50;;;6.00;99.90;;;;;;4979188;28;20399;-88
2024/01/31 06:28:30;;;;;;;2.72;1.02;;;6.00;99.90;;;;;;4968083;28;20047;-81
2024/01/31 06:31:01;;;;;;;2.13;1.05;;;6.00;99.90;;;;;;4949477;28;20395;-88
2024/01/31 06:33:31;;;;;;;3.25;1.30;;;6.00;99.90;;;;;;4950997;28;20035;-83
2024/01/31 06:35:58;;;;;;;3.42;1.08;;;6.00;99.90;;;;;;4964564;28;20046;-82
2024/01/31 06:38:24;;;;;;;3.78;1.08;;;6.00;99.90;;;;;;4965855;28;20043;-89
2024/01/31 06:40:50;;;;;;;4.20;1.50;;;6.00;99.90;;;;;;4948900;28;20039;-86
2024/01/31 06:43:18;;;;;;;4.35;1.55;;;6.00;99.90;;;;;;4933376;28;20391;-87
2024/01/31 06:45:47;;;;;;;2.72;1.55;;;6.00;99.90;;;;;;4965600;28;20046;-94
2024/01/31 06:48:13;;;;;;;4.78;1.50;;;6.00;99.90;;;;;;4973681;28;20042;-81
2024/01/31 06:50:40;;;;;;;3.92;1.30;;;6.00;99.90;;;;;;4972372;28;20034;-89
2024/01/31 06:53:06;;;;;;;3.28;1.05;;;6.00;99.90;;;;;;4947273;28;20042;-92
2024/01/31 06:55:32;;;;;;;3.40;1.00;;;6.00;99.90;;;;;;4972503;28;20042;-87
2024/01/31 06:57:59;;;;;;;3.35;1.10;;;6.00;99.90;;;;;;4987267;28;22845;-87
2024/01/31 07:00:25;;;;;;;3.88;2.10;;;6.00;99.90;;;;;;4973112;28;20039;-85
2024/01/31 07:02:53;;;;;;;2.97;1.58;;;6.00;99.90;;;;;;4938867;28;20070;-85
2024/01/31 07:05:19;;;;;;;5.75;1.67;;;6.00;99.90;;;;;;4971977;28;20046;-87
2024/01/31 07:07:48;;;;;;;5.93;2.13;;;6.00;99.90;;;;;;4947055;28;20042;-81
2024/01/31 07:10:14;;;;;;;2.72;1.88;;;6.00;99.90;;;;;;4979122;28;20047;-89
2024/01/31 07:12:41;;;;;;;2.88;1.98;;;6.00;99.90;;;;;;4952473;28;20034;-86
2024/01/31 07:15:07;;;;;;;2.58;2.13;;;6.00;99.90;;;;;;4933964;28;20347;-90
2024/01/31 07:17:34;;;;;;;5.45;2.53;;;6.00;99.90;;;;;;4932499;28;20035;-83
2024/01/31 07:20:00;;;;;;;5.00;2.97;;;6.00;99.90;;;;;;4963369;28;20035;-85
2024/01/31 07:22:27;;;;;;;5.43;3.33;;;6.00;99.90;;;;;;4964485;28;20043;-89
2024/01/31 07:24:53;;;;;;;4.30;3.30;;;6.00;99.90;;;;;;4963496;28;20039;-87
2024/01/31 07:27:19;;;;;;;4.97;3.67;;;5.90;99.90;;;;;;4965129;28;20541;-81
2024/01/31 07:29:46;;;;;;;5.15;4.20;;;6.00;99.90;;;;;;4963883;28;20043;-91
2024/01/31 07:32:12;;;;;;;4.85;2.97;;;6.00;99.90;;;;;;4948277;28;20058;-84
2024/01/31 07:34:38;;;;;;;3.75;3.20;;;6.00;99.90;;;;;;4963772;28;20047;-89
2024/01/31 07:37:05;;;;;;;7.20;3.08;;;6.00;99.90;;;;;;4951795;28;20035;-87
2024/01/31 07:39:32;;;;;;;3.30;2.75;;;6.00;99.90;;;;;;4967777;28;20480;-83
2024/01/31 07:41:58;;;;;;;4.63;3.42;;;6.00;99.90;;;;;;4967707;28;20035;-90
2024/01/31 07:44:25;;;;;;;4.85;3.40;;;6.00;99.90;;;;;;4967983;28;20043;-89
2024/01/31 07:46:51;;;;;;;4.18;2.70;;;6.00;99.90;;;;;;4952068;28;20061;-92
2024/01/31 07:49:18;;;;;;;3.78;2.83;;;6.00;99.90;;;;;;4983513;28;20110;-90
2024/01/31 07:51:44;;;;;;;4.22;3.38;;;6.00;99.90;;;;;;4937949;28;20050;-89
2024/01/31 07:54:11;;;;;;;4.28;3.63;;;6.00;99.90;;;;;;4952062;28;20039;-91
2024/01/31 07:56:37;;;;;;;5.93;3.80;;;6.00;99.90;;;;;;4953808;28;20062;-89
2024/01/31 07:59:06;;;;;;;4.90;4.15;;;6.00;99.90;;;;;;4938490;28;20414;-89
2024/01/31 08:01:33;;;;;;;5.38;3.60;;;6.10;99.90;;;;;;4983119;28;20367;-89
2024/01/31 08:03:59;;;;;;;4.88;4.18;;;6.10;99.90;;;;;;4954283;28;20027;-89
2024/01/31 08:06:25;;;;;;;6.55;4.72;;;6.10;99.90;;;;;;4938580;28;20410;-87
2024/01/31 08:08:52;;;;;;;4.43;4.03;;;6.10;99.90;;;;;;4976358;28;20136;-88
2024/01/31 08:11:18;;;;;;;7.13;4.68;;;6.10;99.90;;;;;;4943884;28;20047;-84
2024/01/31 08:13:44;;;;;;;5.03;3.88;;;6.10;99.90;;;;;;4970948;28;20038;-91
2024/01/31 08:16:12;;;;;;;4.63;3.55;;;6.20;99.90;;;;;;4969559;28;20039;-88
2024/01/31 08:18:39;;;;;;;5.78;3.97;;;6.20;99.90;;;;;;4953587;28;20039;-87
2024/01/31 08:21:06;;;;;;;5.40;3.20;;;6.20;99.90;;;;;;4937124;28;20031;-79
2024/01/31 08:23:33;;;;;;;6.60;3.38;;;6.20;99.90;;;;;;4956773;28;20039;-87
2024/01/31 08:25:59;;;;;;;6.43;4.00;;;6.20;99.90;;;;;;4941030;28;20386;-88
2024/01/31 08:28:26;;;;;;;4.78;3.75;;;6.20;99.90;;;;;;4971469;28;20044;-89
2024/01/31 08:30:52;;;;;;;4.47;3.72;;;6.30;99.90;;;;;;4939344;28;20043;-80
2024/01/31 08:33:19;;;;;;;9.13;4.03;;;6.30;99.90;;;;;;4954404;28;20027;-89
2024/01/31 08:35:45;;;;;;;4.05;3.20;;;6.30;99.90;;;;;;4936759;28;20054;-89
2024/01/31 08:38:12;;;;;;;5.50;3.67;;;6.30;99.90;;;;;;4952483;28;20361;-81
2024/01/31 08:40:39;;;;;;;7.03;4.70;;;6.30;99.90;;;;;;4948868;28;20379;-86
2024/01/31 08:43:05;;;;;;;7.38;5.15;;;6.30;99.90;;;;;;4969288;28;20039;-85
2024/01/31 08:45:31;;;;;;;6.32;4.20;;;6.40;99.90;;;;;;4965968;28;20038;-85
2024/01/31 08:47:58;;;;;;;5.05;4.10;;;6.40;99.90;;;;;;4967065;28;20495;-85
2024/01/31 08:50:24;;;;;;;7.38;4.22;;;6.40;99.90;;;;;;4969388;28;20034;-90
2024/01/31 08:52:51;;;;;;;4.53;3.33;;;6.40;99.90;;;;;;4951703;28;20039;-88
2024/01/31 08:55:17;;;;;;;5.55;4.15;;;6.40;99.90;;;;;;4952676;28;20039;-87
2024/01/31 08:57:43;;;;;;;9.13;6.00;;;6.50;99.90;;;;;;4950132;28;20043;-88
2024/01/31 09:00:10;;;;;;;6.90;5.10;;;6.50;99.90;;;;;;4952519;28;21031;-90
2024/01/31 09:02:36;;;;;;;6.18;4.22;;;6.50;99.90;;;;;;4967112;28;20050;-84
2024/01/31 09:05:03;;;;;;;5.65;3.85;;;6.50;99.90;;;;;;4966524;28;20361;-83
2024/01/31 09:07:30;;;;;;;6.88;4.75;;;6.60;99.90;;;;;;4983356;28;20031;-82
2024/01/31 09:09:56;;;;;;;8.35;5.60;;;6.60;99.90;;;;;;4937010;28;20039;-85
2024/01/31 09:12:22;;;;;;;8.02;5.38;;;6.60;99.90;;;;;;4970231;28;20039;-88
2024/01/31 09:14:49;;;;;;;5.82;4.88;;;6.70;99.90;;;;;;4967933;28;20510;-88
2024/01/31 09:17:15;;;;;;;7.25;5.95;;;6.70;99.90;;;;;;4967977;28;20058;-89
2024/01/31 09:19:41;;;;;;;6.32;4.50;;;6.70;99.90;;;;;;4972955;28;20035;-90
2024/01/31 09:22:08;;;;;;;6.40;4.75;;;6.80;99.90;;;;;;4939418;28;20040;-85
2024/01/31 09:24:35;;;;;;;5.90;4.40;;;6.80;99.90;;;;;;4983444;28;20062;-88
2024/01/31 09:27:01;;;;;;;6.28;4.63;;;6.90;99.90;;;;;;4935382;28;20042;-88
2024/01/31 09:29:27;;;;;;;8.57;6.03;;;6.90;99.90;;;;;;4966781;28;20054;-86
2024/01/31 09:31:54;;;;;;;5.63;4.93;;;7.00;99.90;;;;;;4935546;28;20034;-88
2024/01/31 09:34:20;;;;;;;8.98;5.60;;;7.00;99.90;;;;;;4967674;28;20039;-82
2024/01/31 09:36:48;;;;;;;6.80;4.88;;;7.10;99.90;;;;;;4951356;28;20050;-86
2024/01/31 09:39:14;;;;;;;6.18;4.63;;;7.10;99.90;;;;;;4935648;28;20039;-85
2024/01/31 09:41:40;;;;;;;6.88;5.40;;;7.20;99.90;;;;;;4936718;28;20031;-92
2024/01/31 09:44:09;;;;;;;8.07;5.18;;;7.20;99.90;;;;;;4968284;28;20050;-87
2024/01/31 09:46:38;;;;;;;10.63;6.78;;;7.30;99.90;;;;;;4939333;28;20027;-93
2024/01/31 09:49:05;;;;;;;10.70;6.75;;;7.30;99.90;;;;;;4938235;28;20058;-88
2024/01/31 09:51:32;;;;;;;8.80;5.85;;;7.40;99.90;;;;;;4968711;28;20407;-85
2024/01/31 09:54:01;;;;;;;9.00;6.35;;;7.40;99.90;;;;;;4952778;28;20043;-88
2024/01/31 09:56:31;;;;;;;8.32;6.30;;;7.50;99.90;;;;;;4936090;28;20324;-91
2024/01/31 09:58:59;;;;;;;7.35;5.20;;;7.50;99.90;;;;;;4953089;28;20043;-86
2024/01/31 10:01:29;;;;;;;8.52;6.13;;;7.60;99.90;;;;;;4984281;28;20031;-81
2024/01/31 10:03:57;;;;;;;12.93;7.35;;;7.70;99.90;;;;;;4986942;28;20039;-93
2024/01/31 10:06:29;;;;;;;8.15;6.60;;;7.80;99.90;;;;;;4955490;28;20416;-81
2024/01/31 10:08:57;;;;;;;;;;;7.80;99.90;;;;;;4941488;28;20046;-87
2024/01/31 10:11:25;;;;;;;8.65;6.38;;;7.80;99.90;;;;;;4985982;28;19918;-82
2024/01/31 10:13:52;;;;;;;8.23;6.10;;;7.90;99.90;;;;;;4967725;28;20415;-92
2024/01/31 10:16:19;;;;;;;7.43;5.97;;;7.90;99.90;;;;;;4971914;28;20024;-86
2024/01/31 10:18:45;;;;;;;9.40;7.47;;;8.00;99.90;;;;;;4933689;28;20032;-87
2024/01/31 10:21:11;;;;;;;9.35;5.97;;;8.00;99.90;;;;;;4968095;28;20038;-91
2024/01/31 10:23:38;;;;;;;12.13;7.88;;;8.10;99.90;;;;;;4935434;28;20498;-85
2024/01/31 10:26:05;;;;;;;12.48;7.57;;;8.10;99.90;;;;;;4951525;28;20039;-96
2024/01/31 10:28:32;;;;;;;12.18;7.63;;;8.10;99.90;;;;;;4968618;28;20042;-88
2024/01/31 10:30:58;;;;;;;9.40;6.63;;;8.10;99.90;;;;;;4963086;28;20051;-88
2024/01/31 10:33:25;;;;;;;17.13;10.02;;;8.10;99.90;;;;;;4960733;28;20054;-88
2024/01/31 10:35:53;;;;;;;12.02;8.88;;;8.10;99.90;;;;;;4946947;28;20023;-84
2024/01/31 10:38:20;;;;;;;11.32;8.82;;;8.10;99.90;;;;;;4948007;28;20473;-90
2024/01/31 10:40:49;;;;;;;18.33;9.98;;;8.10;99.90;;;;;;4983465;28;20504;-81
2024/01/31 10:43:16;;;;;;;18.35;11.32;;;8.00;99.90;;;;;;4952951;28;20044;-80
2024/01/31 10:45:43;;;;;;;17.70;11.82;;;8.00;99.90;;;;;;4938482;28;20050;-92
2024/01/31 10:48:09;;;;;;;15.30;10.48;;;8.00;99.90;;;;;;4955951;28;20548;-90
2024/01/31 10:50:35;;;;;;;16.60;9.70;;;8.00;99.90;;;;;;4966481;28;20035;-93
2024/01/31 10:53:05;;;;;;;15.82;11.15;;;8.00;99.90;;;;;;4954160;28;20039;-80
2024/01/31 10:55:33;;;;;;;17.77;11.13;;;8.00;99.90;;;;;;4949025;28;20032;-87
2024/01/31 10:58:01;;;;;;;18.17;11.68;;;8.00;99.90;;;;;;4936965;28;20039;-93
2024/01/31 11:00:28;;;;;;;24.63;13.88;;;8.00;99.90;;;;;;4950411;28;20459;-88
2024/01/31 11:02:56;;;;;;;23.80;14.48;;;8.00;99.90;;;;;;4932837;28;20027;-92
2024/01/31 11:05:26;;;;;;;23.67;15.52;;;8.00;99.90;;;;;;4936778;28;20646;-85
2024/01/31 11:07:53;;;;;;;26.55;16.58;;;8.10;99.90;;;;;;4950457;28;20035;-85
2024/01/31 11:10:22;;;;;;;23.60;16.70;;;8.00;99.90;;;;;;4934745;28;20038;-88
2024/01/31 11:13:00;;;;;;;30.10;19.60;;;8.10;99.90;;;;;;4965133;28;20035;-86
2024/01/31 11:15:34;;;;;;;33.35;19.80;;;8.10;99.90;;;;;;4978368;28;20038;-80
2024/01/31 11:18:14;;;;;;;39.28;22.27;;;8.20;99.90;;;;;;4944916;28;20042;-91
2024/01/31 11:20:46;;;;;;;33.42;20.67;;;8.20;99.90;;;;;;4971780;28;20062;-86
2024/01/31 11:23:19;;;;;;;32.13;19.97;;;8.20;99.90;;;;;;4953520;28;20035;-88
2024/01/31 11:25:46;;;;;;;;;;;8.20;99.90;;;;;;4955288;28;20784;-87
2024/01/31 11:28:13;;;;;;;30.77;18.60;;;8.20;99.90;;;;;;4971068;28;19933;-88
2024/01/31 11:30:40;;;;;;;35.88;22.33;;;8.20;99.90;;;;;;4957009;28;20039;-82
2024/01/31 11:33:06;;;;;;;32.13;19.90;;;8.30;99.90;;;;;;4968581;28;20031;-87
2024/01/31 11:35:33;;;;;;;42.15;24.15;;;8.30;99.90;;;;;;4937543;28;20043;-85
2024/01/31 11:37:59;;;;;;;38.38;23.52;;;8.30;99.90;;;;;;4952195;28;20042;-85
2024/01/31 11:40:26;;;;;;;41.65;24.48;;;8.40;99.90;;;;;;4970300;28;20038;-92
2024/01/31 11:42:56;;;;;;;38.35;25.15;;;8.40;99.90;;;;;;4938942;28;20159;-84
2024/01/31 11:45:26;;;;;;;38.22;23.08;;;8.40;99.90;;;;;;4970226;28;20044;-83
2024/01/31 11:47:57;;;;;;;40.58;24.25;;;8.50;99.90;;;;;;4954692;28;20050;-87
2024/01/31 11:50:25;;;;;;;44.97;27.60;;;8.50;99.90;;;;;;4965520;28;20067;-85
2024/01/31 11:52:52;;;;;;;40.33;24.80;;;8.50;99.90;;;;;;4937487;28;20054;-80
2024/01/31 11:55:29;;;;;;;43.95;25.63;;;8.60;99.90;;;;;;4951245;28;20487;-88
2024/01/31 11:57:56;;;;;;;39.03;24.17;;;8.60;99.90;;;;;;4970624;28;20045;-86
2024/01/31 12:00:23;;;;;;;38.03;23.10;;;8.60;99.90;;;;;;4971910;28;20035;-87
2024/01/31 12:02:51;;;;;;;32.58;20.60;;;8.60;99.90;;;;;;4957209;28;20035;-87
2024/01/31 12:05:18;;;;;;;29.55;18.42;;;8.60;99.90;;;;;;4967459;28;20050;-87
2024/01/31 12:07:58;;;;;;;34.97;21.67;;;8.60;99.90;;;;;;4934971;28;20679;-88
2024/01/31 12:10:26;;;;;;;31.00;19.33;;;8.50;99.90;;;;;;4968347;28;20046;-86
2024/01/31 12:12:53;;;;;;;34.28;20.92;;;8.50;99.90;;;;;;4949339;28;20385;-89
2024/01/31 12:15:19;;;;;;;30.20;21.00;;;8.50;99.90;;;;;;4935528;28;20031;-86
2024/01/31 12:17:46;;;;;;;31.48;19.58;;;8.50;99.90;;;;;;4982225;28;20497;-84
2024/01/31 12:20:12;;;;;;;30.17;19.67;;;8.50;99.90;;;;;;4968955;28;20027;-87
2024/01/31 12:22:39;;;;;;;33.20;21.40;;;8.50;99.90;;;;;;4973341;28;20070;-89
2024/01/31 12:25:07;;;;;;;32.45;20.00;;;8.50;99.90;;;;;;4959803;28;20035;-89
2024/01/31 12:27:33;;;;;;;32.13;21.02;;;8.50;99.90;;;;;;4949186;28;20380;-93
2024/01/31 12:30:00;;;;;;;30.75;19.98;;;8.50;99.90;;;;;;4958659;28;20035;-80
2024/01/31 12:32:27;;;;;;;26.92;17.33;;;8.40;99.90;;;;;;4971662;28;20039;-89
2024/01/31 12:34:54;;;;;;;25.63;16.13;;;8.40;99.90;;;;;;4953363;28;20035;-79
2024/01/31 12:37:21;;;;;;;29.45;19.70;;;8.50;99.90;;;;;;4952738;28;20039;-87
2024/01/31 12:39:47;;;;;;;24.60;18.13;;;8.50;99.90;;;;;;4964626;28;20043;-85
2024/01/31 12:42:14;;;;;;;28.65;19.00;;;8.40;99.90;;;;;;4951866;28;21909;-89
2024/01/31 12:44:40;;;;;;;21.75;16.08;;;8.30;99.90;;;;;;4970708;28;20038;-88
2024/01/31 12:47:07;;;;;;;20.00;15.75;;;8.30;99.90;;;;;;4955816;28;20035;-87
2024/01/31 12:49:34;;;;;;;17.50;13.85;;;8.20;99.90;;;;;;4952226;28;20566;-88
2024/01/31 12:52:01;;;;;;;20.40;15.75;;;8.20;99.90;;;;;;4969871;28;20027;-87